createdAt,value
2023-05-19T00:00:16.345Z,66.676596
2023-05-19T00:05:16.142Z,67.171631
2023-05-19T00:10:16.573Z,66.621986
2023-05-19T00:15:15.705Z,66.992958
2023-05-19T00:20:16.840Z,67.911348
2023-05-19T00:25:16.926Z,68.030496
2023-05-19T00:30:17.037Z,66.475887
2023-05-19T00:35:15.815Z,66.728369
2023-05-19T00:40:15.787Z,67.374468
2023-05-19T00:45:16.097Z,68.659286
2023-05-19T00:50:15.738Z,69.060563
2023-05-19T00:55:15.794Z,68.650000
2023-05-19T01:00:15.862Z,67.710638
2023-05-19T01:05:16.416Z,66.985106
2023-05-19T01:10:16.185Z,65.737324
2023-05-19T01:15:15.968Z,67.399291
2023-05-19T01:20:15.762Z,67.173759
2023-05-19T01:25:15.803Z,68.880282
2023-05-19T01:30:15.819Z,68.788112
2023-05-19T01:35:16.338Z,68.029577
2023-05-19T01:40:16.035Z,66.218310
2023-05-19T01:45:16.069Z,66.909929
2023-05-19T01:50:16.057Z,65.537589
2023-05-19T01:55:15.954Z,66.555245
2023-05-19T02:00:16.227Z,68.076923
2023-05-19T02:05:15.854Z,68.548951
2023-05-19T02:10:16.476Z,68.648951
2023-05-19T02:15:16.373Z,68.124476
2023-05-19T02:20:15.791Z,67.575524
2023-05-19T02:25:15.923Z,67.813889
2023-05-19T02:30:15.914Z,66.818367
2023-05-19T02:35:16.131Z,66.505556
2023-05-19T02:40:16.268Z,66.526027
2023-05-19T02:45:15.975Z,66.564583
2023-05-19T02:50:16.042Z,66.735915
2023-05-19T02:55:16.139Z,67.478169
2023-05-19T03:00:16.156Z,68.427660
2023-05-19T03:05:16.223Z,67.918310
2023-05-19T03:10:16.435Z,67.034752
2023-05-19T03:15:16.286Z,68.178873
2023-05-19T03:20:16.019Z,68.978873
2023-05-19T03:25:16.203Z,69.162676
2023-05-19T03:30:15.782Z,69.550000
2023-05-19T03:35:16.393Z,69.827273
2023-05-19T03:40:16.221Z,70.593750
2023-05-19T03:45:15.691Z,71.906993
2023-05-19T03:50:16.302Z,72.784615
2023-05-19T03:55:15.839Z,73.064336
2023-05-19T04:00:17.104Z,73.830986
2023-05-19T04:05:17.295Z,74.400699
2023-05-19T04:10:16.297Z,74.536364
2023-05-19T04:15:16.602Z,75.029371
2023-05-19T04:20:15.977Z,74.966667
2023-05-19T04:25:16.326Z,75.073050
2023-05-19T04:30:18.357Z,75.218310
2023-05-19T04:35:16.979Z,75.660563
2023-05-19T04:40:16.749Z,76.659859
2023-05-19T04:45:15.819Z,77.626056
2023-05-19T04:50:16.293Z,77.961268
2023-05-19T04:55:15.922Z,77.887143
2023-05-19T05:00:15.953Z,77.730496
2023-05-19T05:05:16.315Z,77.391549
2023-05-19T05:10:15.777Z,77.126241
2023-05-19T05:15:16.528Z,77.588489
2023-05-19T05:20:15.725Z,78.313475
2023-05-19T05:25:15.865Z,79.433571
2023-05-19T05:30:15.920Z,79.382143
2023-05-19T05:35:16.046Z,79.232624
2023-05-19T05:40:15.950Z,79.604255
2023-05-19T05:45:15.851Z,80.207746
2023-05-19T05:50:16.411Z,80.216084
2023-05-19T05:55:15.675Z,80.209929
2023-05-19T06:00:16.015Z,80.367376
2023-05-19T06:05:17.020Z,80.310638
2023-05-19T06:10:15.867Z,79.745070
2023-05-19T06:15:15.961Z,79.873050
2023-05-19T06:20:15.853Z,80.057447
2023-05-19T06:25:16.977Z,80.035461
2023-05-19T06:30:16.495Z,79.880282
2023-05-19T06:35:16.353Z,79.602817
2023-05-19T06:40:16.337Z,79.414789
2023-05-19T06:45:16.265Z,79.251408
2023-05-19T06:50:16.078Z,78.732394
2023-05-19T06:55:16.242Z,78.573759
2023-05-19T07:00:17.930Z,78.265957
2023-05-19T07:05:16.041Z,77.970423
2023-05-19T07:10:16.569Z,78.004196
2023-05-19T07:15:15.910Z,77.639860
2023-05-19T07:20:15.684Z,77.249650
2023-05-19T07:25:16.525Z,77.447222
2023-05-19T07:30:16.240Z,77.788889
2023-05-19T07:35:16.110Z,78.111189
2023-05-19T07:40:16.282Z,78.301399
2023-05-19T07:45:15.835Z,77.837063
2023-05-19T07:50:16.422Z,77.418881
2023-05-19T07:55:15.961Z,77.002098
2023-05-19T08:00:16.804Z,76.799306
2023-05-19T08:05:16.899Z,77.202759
2023-05-19T08:10:15.985Z,76.932639
2023-05-19T08:15:16.398Z,76.853846
2023-05-19T08:20:16.373Z,77.634028
2023-05-19T08:25:15.959Z,77.608966
2023-05-19T08:30:15.775Z,78.188276
2023-05-19T08:35:16.617Z,79.156643
2023-05-19T08:40:15.994Z,79.322917
2023-05-19T08:45:16.079Z,78.925694
2023-05-19T08:50:15.776Z,79.313793
2023-05-19T08:55:16.169Z,79.532168
2023-05-19T09:00:15.929Z,79.937063
2023-05-19T09:05:16.593Z,80.041259
2023-05-19T09:10:16.092Z,80.546528
2023-05-19T09:15:16.307Z,80.738732
2023-05-19T09:20:16.217Z,80.860284
2023-05-19T09:25:16.002Z,81.002817
2023-05-19T09:30:15.920Z,80.526761
2023-05-19T09:35:16.061Z,80.044366
2023-05-19T09:40:16.312Z,80.253521
2023-05-19T09:45:17.397Z,80.068531
2023-05-19T09:50:16.948Z,79.886620
2023-05-19T09:55:16.016Z,79.821678
2023-05-19T10:00:16.271Z,80.047917
2023-05-19T10:05:16.193Z,80.111034
2023-05-19T10:10:15.781Z,80.308163
2023-05-19T10:15:16.282Z,80.383673
2023-05-19T10:20:16.125Z,80.325850
2023-05-19T10:25:16.432Z,80.536986
2023-05-19T10:30:16.602Z,80.228082
2023-05-19T10:35:15.907Z,79.342361
2023-05-19T10:40:16.892Z,79.004895
2023-05-19T10:45:16.246Z,78.749306
2023-05-19T10:50:15.782Z,78.696503
2023-05-19T10:55:16.241Z,78.441667
2023-05-19T11:00:15.978Z,78.535417
2023-05-19T11:05:16.950Z,78.462500
2023-05-19T11:10:15.858Z,79.392361
2023-05-19T11:15:15.899Z,79.657241
2023-05-19T11:20:16.142Z,79.629655
2023-05-19T11:25:16.252Z,79.956463
2023-05-19T11:30:16.099Z,80.338732
2023-05-19T11:35:16.042Z,80.294406
2023-05-19T11:40:15.790Z,79.966434
2023-05-19T11:45:16.113Z,79.965972
2023-05-19T11:50:15.912Z,80.548252
2023-05-19T11:55:15.941Z,81.019580
2023-05-19T12:00:16.764Z,81.204828
2023-05-19T12:05:15.863Z,81.024658
2023-05-19T12:10:15.772Z,80.855479
2023-05-19T12:15:15.847Z,81.050685
2023-05-19T12:20:15.932Z,81.031469
2023-05-19T12:25:15.921Z,80.991667
2023-05-19T12:30:16.283Z,80.504167
2023-05-19T12:35:17.219Z,81.109220
2023-05-19T12:40:16.017Z,81.234752
2023-05-19T12:45:15.939Z,81.487143
2023-05-19T12:50:15.994Z,80.645390
2023-05-19T12:55:16.280Z,79.830496
2023-05-19T13:00:16.644Z,79.053846
2023-05-19T13:05:15.994Z,78.677465
2023-05-19T13:10:16.953Z,78.202128
2023-05-19T13:15:15.900Z,77.789437
2023-05-19T13:20:15.891Z,77.680142
2023-05-19T13:25:15.708Z,77.481429
2023-05-19T13:30:16.057Z,77.274468
2023-05-19T13:35:15.893Z,77.166901
2023-05-19T13:40:17.355Z,76.748936
2023-05-19T13:45:15.871Z,76.570423
2023-05-19T13:50:16.187Z,76.754225
2023-05-19T13:55:16.543Z,76.620833
2023-05-19T14:00:16.649Z,76.511888
2023-05-19T14:05:15.889Z,76.628671
2023-05-19T14:10:16.015Z,76.267133
2023-05-19T14:15:16.714Z,76.219444
2023-05-19T14:20:16.012Z,75.707042
2023-05-19T14:25:16.433Z,75.511888
2023-05-19T14:30:16.185Z,75.346154
2023-05-19T14:35:17.020Z,75.238028
2023-05-19T14:40:15.987Z,75.424113
2023-05-19T14:45:15.745Z,75.695139
2023-05-19T14:50:16.542Z,75.303521
2023-05-19T14:55:16.133Z,75.635417
2023-05-19T15:00:16.630Z,76.725517
2023-05-19T15:05:16.746Z,77.993056
2023-05-19T15:10:16.302Z,78.269014
2023-05-19T15:15:16.690Z,78.548227
2023-05-19T15:20:15.835Z,78.910563
2023-05-19T15:25:16.115Z,78.760993
2023-05-19T15:30:15.852Z,78.769504
2023-05-19T15:35:17.162Z,78.269504
2023-05-19T15:40:17.623Z,79.975524
2023-05-19T15:45:16.039Z,79.001418
2023-05-19T15:50:16.891Z,77.902113
2023-05-19T15:55:16.519Z,77.187234
2023-05-19T16:00:16.135Z,76.806250
2023-05-19T16:05:17.346Z,76.903448
2023-05-19T16:10:15.839Z,76.245139
2023-05-19T16:15:16.522Z,75.585915
2023-05-19T16:20:17.323Z,74.848592
2023-05-19T16:25:15.827Z,75.107746
2023-05-19T16:30:16.480Z,74.527660
2023-05-19T16:35:16.011Z,74.167123
2023-05-19T16:40:15.840Z,75.334247
2023-05-19T16:45:16.753Z,76.424828
2023-05-19T16:50:15.656Z,77.200000
2023-05-19T16:55:15.731Z,76.422378
2023-05-19T17:00:16.506Z,77.571528
2023-05-19T17:05:16.336Z,79.341549
2023-05-19T17:10:15.690Z,80.537063
2023-05-19T17:15:16.063Z,80.528873
2023-05-19T17:20:15.896Z,79.845455
2023-05-19T17:25:16.710Z,81.143357
2023-05-19T17:30:15.987Z,80.160690
2023-05-19T17:35:16.363Z,80.824306
2023-05-19T17:40:16.528Z,78.143056
2023-05-19T17:45:16.562Z,77.854167
2023-05-19T17:50:15.776Z,77.567586
2023-05-19T17:55:16.573Z,76.139860
2023-05-19T18:00:15.830Z,74.634483
2023-05-19T18:05:16.114Z,73.687413
2023-05-19T18:10:16.326Z,74.357241
2023-05-19T18:15:16.162Z,75.742466
2023-05-19T18:20:15.870Z,76.824306
2023-05-19T18:25:15.968Z,76.998601
2023-05-19T18:30:15.928Z,76.459722
2023-05-19T18:35:15.976Z,76.152055
2023-05-19T18:40:15.797Z,76.509655
2023-05-19T18:45:17.141Z,76.717007
2023-05-19T18:50:16.973Z,75.349315
2023-05-19T18:55:16.694Z,74.016084
2023-05-19T19:00:16.014Z,73.897902
2023-05-19T19:05:15.984Z,73.057931
2023-05-19T19:10:16.316Z,72.463699
2023-05-19T19:15:16.226Z,74.317808
2023-05-19T19:20:16.841Z,75.989041
2023-05-19T19:25:16.693Z,74.000690
2023-05-19T19:30:16.914Z,73.509091
2023-05-19T19:35:16.353Z,74.342657
2023-05-19T19:40:15.837Z,74.863194
2023-05-19T19:45:16.049Z,73.747222
2023-05-19T19:50:16.710Z,74.942361
2023-05-19T19:55:16.036Z,75.041259
2023-05-19T20:00:15.762Z,73.078472
2023-05-19T20:05:15.991Z,71.420833
2023-05-19T20:10:16.134Z,69.679167
2023-05-19T20:15:16.849Z,67.595070
2023-05-19T20:20:16.072Z,66.475177
2023-05-19T20:25:16.449Z,66.408392
2023-05-19T20:30:15.824Z,66.184507
2023-05-19T20:35:16.696Z,66.379433
2023-05-19T20:40:16.116Z,66.033099
2023-05-19T20:45:16.607Z,65.406338
2023-05-19T20:50:16.836Z,65.933099
2023-05-19T20:55:16.708Z,66.157042
2023-05-19T21:00:15.846Z,66.904965
2023-05-19T21:05:16.076Z,66.164789
2023-05-19T21:10:17.460Z,65.546853
2023-05-19T21:15:16.281Z,65.721831
2023-05-19T21:20:16.637Z,65.792199
2023-05-19T21:25:15.859Z,65.786713
2023-05-19T21:30:17.115Z,65.262238
2023-05-19T21:35:16.004Z,64.863194
2023-05-19T21:40:16.280Z,65.076056
2023-05-19T21:45:16.452Z,64.982979
2023-05-19T21:50:15.908Z,64.128873
2023-05-19T21:55:16.186Z,65.604255
2023-05-19T22:00:17.102Z,64.723741
2023-05-19T22:05:16.151Z,64.566667
2023-05-19T22:10:15.775Z,65.595745
2023-05-19T22:15:16.285Z,66.969014
2023-05-19T22:20:16.291Z,66.834752
2023-05-19T22:25:15.969Z,67.216312
2023-05-19T22:30:16.510Z,67.366901
2023-05-19T22:35:16.818Z,65.309155
2023-05-19T22:40:16.282Z,64.374825
2023-05-19T22:45:15.954Z,64.019718
2023-05-19T22:50:15.676Z,64.223776
2023-05-19T22:55:15.723Z,65.200000
2023-05-19T23:00:17.069Z,65.632624
2023-05-19T23:05:16.833Z,65.266667
2023-05-19T23:10:16.455Z,64.816312
2023-05-19T23:15:17.024Z,65.333803
2023-05-19T23:20:16.473Z,65.715493
2023-05-19T23:25:16.288Z,64.841135
2023-05-19T23:30:16.136Z,64.659155
2023-05-19T23:35:17.512Z,63.418440
2023-05-19T23:40:15.960Z,63.312057
2023-05-19T23:45:15.735Z,63.432624
2023-05-19T23:50:16.876Z,63.416312
2023-05-19T23:55:16.448Z,63.258451
